createdAt,value
2022-08-17T00:01:26.201Z,32.80
2022-08-17T00:03:54.602Z,33.03
2022-08-17T00:06:28.020Z,36.07
2022-08-17T00:09:02.718Z,35.30
2022-08-17T00:11:36.161Z,33.13
2022-08-17T00:14:10.628Z,33.27
2022-08-17T00:16:55.738Z,33.00
2022-08-17T00:19:25.561Z,35.13
2022-08-17T00:22:33.171Z,38.07
2022-08-17T00:24:40.878Z,35.03
2022-08-17T00:27:07.274Z,37.60
2022-08-17T00:29:33.851Z,36.43
2022-08-17T00:32:01.871Z,36.03
2022-08-17T00:34:48.256Z,38.20
2022-08-17T00:37:14.723Z,38.47
2022-08-17T00:39:41.285Z,37.37
2022-08-17T00:42:18.644Z,38.37
2022-08-17T00:44:46.095Z,36.03
2022-08-17T00:47:12.550Z,36.43
2022-08-17T00:49:39.029Z,37.13
2022-08-17T00:52:12.513Z,36.13
2022-08-17T00:54:42.363Z,41.43
2022-08-17T00:57:15.027Z,40.03
2022-08-17T00:59:46.436Z,37.70
2022-08-17T01:02:29.895Z,38.93
2022-08-17T01:05:01.120Z,45.47
2022-08-17T01:07:27.620Z,41.60
2022-08-17T01:09:54.778Z,38.33
2022-08-17T01:12:21.473Z,41.27
2022-08-17T01:14:47.910Z,41.60
2022-08-17T01:17:14.386Z,39.90
2022-08-17T01:19:42.760Z,41.63
2022-08-17T01:22:09.129Z,40.77
2022-08-17T01:24:38.070Z,41.27
2022-08-17T01:27:10.675Z,39.73
2022-08-17T01:29:41.079Z,41.27
2022-08-17T01:32:08.322Z,40.43
2022-08-17T01:34:43.486Z,42.70
2022-08-17T01:37:12.311Z,41.13
2022-08-17T01:39:44.450Z,40.97
2022-08-17T01:42:13.130Z,41.07
2022-08-17T01:44:40.546Z,44.90
2022-08-17T01:47:07.336Z,42.73
2022-08-17T01:49:34.092Z,49.23
2022-08-17T01:52:09.859Z,42.43
2022-08-17T01:54:39.150Z,43.83
2022-08-17T01:57:06.008Z,44.27
2022-08-17T01:59:32.666Z,45.20
2022-08-17T02:02:00.050Z,46.63
2022-08-17T02:04:26.602Z,42.90
2022-08-17T02:06:54.584Z,42.83
2022-08-17T02:09:26.331Z,40.20
2022-08-17T02:11:59.111Z,42.13
2022-08-17T02:14:26.295Z,38.03
2022-08-17T02:16:53.358Z,43.23
2022-08-17T02:19:20.441Z,44.63
2022-08-17T02:21:52.728Z,40.60
2022-08-17T02:24:58.707Z,37.83
2022-08-17T02:27:10.857Z,41.80
2022-08-17T02:29:37.880Z,41.27
2022-08-17T02:32:04.986Z,39.70
2022-08-17T02:34:31.733Z,42.50
2022-08-17T02:36:58.198Z,38.73
2022-08-17T02:39:24.680Z,44.57
2022-08-17T02:42:00.898Z,40.87
2022-08-17T02:44:35.408Z,38.77
2022-08-17T02:47:08.974Z,41.70
2022-08-17T02:49:35.670Z,44.97
2022-08-17T02:52:07.264Z,45.93
2022-08-17T02:54:41.599Z,42.87
2022-08-17T02:57:10.191Z,43.83
2022-08-17T02:59:44.272Z,59.20
2022-08-17T03:02:14.843Z,45.67
2022-08-17T03:04:41.358Z,50.83
2022-08-17T03:07:07.829Z,48.83
2022-08-17T03:09:34.254Z,48.43
2022-08-17T03:12:13.043Z,54.53
2022-08-17T03:14:43.597Z,48.27
2022-08-17T03:17:11.028Z,53.40
2022-08-17T03:19:43.758Z,58.73
2022-08-17T03:22:36.674Z,100.80
2022-08-17T03:24:56.905Z,66.03
2022-08-17T03:27:23.352Z,54.30
2022-08-17T03:29:49.765Z,56.57
2022-08-17T03:32:17.118Z,47.83
2022-08-17T03:34:43.597Z,81.40
2022-08-17T03:37:10.073Z,87.37
2022-08-17T03:39:36.533Z,61.97
2022-08-17T03:42:32.110Z,43.00
2022-08-17T03:44:59.128Z,44.80
2022-08-17T03:47:25.593Z,65.90
2022-08-17T03:49:52.044Z,47.33
2022-08-17T03:52:18.507Z,54.33
2022-08-17T03:54:45.339Z,69.07
2022-08-17T03:57:12.187Z,69.87
2022-08-17T03:59:39.072Z,65.90
2022-08-17T04:02:19.003Z,71.40
2022-08-17T04:04:45.509Z,38.60
2022-08-17T04:07:12.214Z,42.30
2022-08-17T04:09:38.682Z,41.87
2022-08-17T04:12:05.466Z,38.83
2022-08-17T04:14:33.196Z,74.20
2022-08-17T04:16:59.642Z,48.50
2022-08-17T04:19:26.030Z,77.10
2022-08-17T04:21:52.439Z,40.13
2022-08-17T04:24:19.010Z,84.33
2022-08-17T04:26:50.576Z,65.00
2022-08-17T04:29:20.221Z,47.17
2022-08-17T04:31:46.644Z,113.00
2022-08-17T04:34:13.132Z,60.93
2022-08-17T04:36:39.608Z,54.30
2022-08-17T04:39:06.098Z,56.03
2022-08-17T04:41:32.745Z,69.67
2022-08-17T04:44:00.197Z,55.73
2022-08-17T04:46:29.958Z,67.10
2022-08-17T04:48:57.585Z,43.77
2022-08-17T04:51:35.150Z,65.03
2022-08-17T04:54:05.299Z,41.33
2022-08-17T04:56:32.477Z,50.80
2022-08-17T04:59:01.982Z,41.77
2022-08-17T05:01:31.639Z,45.47
2022-08-17T05:04:20.784Z,42.57
2022-08-17T05:06:48.952Z,44.57
2022-08-17T05:09:17.103Z,43.80
2022-08-17T05:11:45.068Z,46.57
2022-08-17T05:14:11.862Z,44.87
2022-08-17T05:16:38.329Z,42.90
2022-08-17T05:19:04.832Z,42.63
2022-08-17T05:21:31.293Z,43.93
2022-08-17T05:23:57.880Z,46.80
2022-08-17T05:26:27.477Z,43.53
2022-08-17T05:28:59.384Z,43.33
2022-08-17T05:31:27.197Z,45.97
2022-08-17T05:33:53.797Z,50.23
2022-08-17T05:36:37.899Z,55.60
2022-08-17T05:39:06.836Z,59.87
2022-08-17T05:41:33.273Z,52.90
2022-08-17T05:43:59.761Z,58.87
2022-08-17T05:46:36.241Z,55.20
2022-08-17T05:49:05.732Z,53.67
2022-08-17T05:51:32.092Z,57.47
2022-08-17T05:54:09.596Z,55.00
2022-08-17T05:57:00.677Z,58.23
2022-08-17T05:59:36.882Z,56.63
2022-08-17T06:02:36.171Z,52.57
2022-08-17T06:05:10.505Z,54.87
2022-08-17T06:07:53.814Z,54.57
2022-08-17T06:10:32.029Z,48.80
2022-08-17T06:13:17.589Z,47.80
2022-08-17T06:15:53.231Z,46.10
2022-08-17T06:18:21.970Z,46.60
2022-08-17T06:20:59.755Z,45.97
2022-08-17T06:23:41.397Z,44.50
2022-08-17T06:26:14.637Z,46.17
2022-08-17T06:28:51.829Z,45.03
2022-08-17T06:31:26.314Z,41.17
2022-08-17T06:33:53.443Z,42.63
2022-08-17T06:36:51.541Z,43.40
2022-08-17T06:39:24.580Z,42.93
2022-08-17T06:43:02.331Z,42.87
2022-08-17T06:45:34.430Z,40.37
2022-08-17T06:48:14.321Z,41.67
2022-08-17T06:50:46.579Z,44.00
2022-08-17T06:53:34.413Z,41.77
2022-08-17T06:56:00.792Z,43.83
2022-08-17T06:58:29.829Z,41.80
2022-08-17T07:00:58.797Z,41.07
2022-08-17T07:03:28.321Z,43.23
2022-08-17T07:06:03.208Z,41.43
2022-08-17T07:08:35.359Z,41.30
2022-08-17T07:11:17.055Z,44.27
2022-08-17T07:14:04.928Z,45.17
2022-08-17T07:16:39.450Z,47.40
2022-08-17T07:19:06.217Z,49.07
2022-08-17T07:21:58.701Z,47.47
2022-08-17T07:24:35.395Z,50.67
2022-08-17T07:27:15.661Z,46.10
2022-08-17T07:29:50.184Z,54.80
2022-08-17T07:32:24.153Z,58.30
2022-08-17T07:35:17.693Z,56.07
2022-08-17T07:38:25.967Z,58.17
2022-08-17T07:40:56.049Z,52.67
2022-08-17T07:43:25.151Z,60.10
2022-08-17T07:45:55.869Z,52.83
2022-08-17T07:48:25.939Z,52.03
2022-08-17T07:50:52.477Z,52.87
2022-08-17T07:53:23.212Z,53.97
2022-08-17T07:55:51.132Z,51.80
2022-08-17T07:58:22.023Z,52.03
2022-08-17T08:01:14.134Z,51.87
2022-08-17T08:03:43.773Z,54.50
2022-08-17T08:06:24.831Z,49.03
2022-08-17T08:08:54.266Z,50.13
2022-08-17T08:11:33.810Z,46.73
2022-08-17T08:14:28.329Z,47.83
2022-08-17T08:17:01.494Z,49.30
2022-08-17T08:19:30.542Z,48.60
2022-08-17T08:22:00.131Z,49.73
2022-08-17T08:24:49.043Z,51.10
2022-08-17T08:27:24.585Z,50.17
2022-08-17T08:30:02.353Z,49.83
2022-08-17T08:32:43.800Z,51.73
2022-08-17T08:35:29.489Z,49.77
2022-08-17T08:38:00.906Z,50.67
2022-08-17T08:40:38.550Z,50.60
2022-08-17T08:43:37.013Z,58.03
2022-08-17T08:46:23.536Z,54.17
2022-08-17T08:50:02.810Z,57.23
2022-08-17T08:52:45.968Z,60.67
2022-08-17T08:55:35.418Z,52.13
2022-08-17T08:58:32.120Z,58.10
2022-08-17T09:01:05.437Z,54.23
2022-08-17T09:04:23.251Z,57.20
2022-08-17T09:06:57.558Z,59.70
2022-08-17T09:09:42.735Z,54.17
2022-08-17T09:12:25.660Z,52.50
2022-08-17T09:15:01.219Z,52.77
2022-08-17T09:17:39.594Z,49.00
2022-08-17T09:20:28.088Z,47.90
2022-08-17T09:23:15.116Z,45.63
2022-08-17T09:26:04.761Z,45.53
2022-08-17T09:28:36.396Z,43.70
2022-08-17T09:31:14.470Z,46.70
2022-08-17T09:33:45.502Z,45.87
2022-08-17T09:36:18.401Z,43.27
2022-08-17T09:39:14.409Z,41.27
2022-08-17T09:41:48.539Z,40.07
2022-08-17T09:44:30.822Z,40.37
2022-08-17T09:47:10.675Z,38.40
2022-08-17T09:49:46.511Z,38.83
2022-08-17T09:52:23.633Z,40.73
2022-08-17T09:54:52.075Z,39.57
2022-08-17T09:57:37.087Z,38.87
2022-08-17T10:00:18.979Z,33.43
2022-08-17T10:02:54.032Z,26.73
2022-08-17T10:05:31.112Z,24.23
2022-08-17T10:08:06.021Z,23.83
2022-08-17T10:10:57.292Z,23.33
2022-08-17T10:13:32.863Z,22.00
2022-08-17T10:16:11.310Z,23.43
2022-08-17T10:18:53.532Z,24.47
2022-08-17T10:21:22.553Z,24.73
2022-08-17T10:24:06.176Z,26.90
2022-08-17T10:26:53.448Z,26.00
2022-08-17T10:29:47.376Z,25.53
2022-08-17T10:32:43.338Z,24.87
2022-08-17T10:35:18.309Z,22.13
2022-08-17T10:38:21.530Z,22.53
2022-08-17T10:41:02.410Z,21.00
2022-08-17T10:43:40.919Z,23.07
2022-08-17T10:46:30.662Z,21.57
2022-08-17T10:49:18.366Z,19.33
2022-08-17T10:51:47.032Z,16.03
2022-08-17T10:54:59.578Z,16.10
2022-08-17T10:57:32.081Z,14.20
2022-08-17T11:00:26.991Z,12.97
2022-08-17T11:02:55.692Z,13.27
2022-08-17T11:05:43.421Z,13.43
2022-08-17T11:08:33.619Z,13.43
2022-08-17T11:11:38.703Z,14.33
2022-08-17T11:14:07.993Z,13.77
2022-08-17T11:16:52.600Z,14.73
2022-08-17T11:19:27.948Z,14.47
2022-08-17T11:21:54.328Z,14.30
2022-08-17T11:24:29.249Z,14.70
2022-08-17T11:27:46.628Z,15.77
2022-08-17T11:30:15.276Z,16.53
2022-08-17T11:32:54.829Z,18.60
2022-08-17T11:35:21.747Z,18.23
2022-08-17T11:38:15.885Z,19.03
2022-08-17T11:41:04.886Z,18.30
2022-08-17T11:44:03.215Z,19.37
2022-08-17T11:46:35.745Z,18.30
2022-08-17T11:49:14.418Z,19.50
2022-08-17T11:51:59.030Z,19.17
2022-08-17T11:54:33.731Z,21.00
2022-08-17T11:57:26.628Z,20.10
2022-08-17T11:59:55.592Z,23.43
2022-08-17T12:02:32.509Z,22.20
2022-08-17T12:05:12.147Z,21.20
2022-08-17T12:08:17.587Z,19.73
2022-08-17T12:10:58.064Z,20.20
2022-08-17T12:13:33.970Z,21.20
2022-08-17T12:16:06.202Z,21.67
2022-08-17T12:18:33.418Z,20.67
2022-08-17T12:21:19.715Z,19.97
2022-08-17T12:24:05.232Z,17.03
2022-08-17T12:26:34.720Z,17.23
2022-08-17T12:29:05.303Z,16.23
2022-08-17T12:31:36.467Z,16.73
2022-08-17T12:34:04.917Z,17.10
2022-08-17T12:36:33.618Z,14.80
2022-08-17T12:39:13.007Z,15.10
2022-08-17T12:41:47.348Z,14.20
2022-08-17T12:44:29.761Z,14.17
2022-08-17T12:47:03.224Z,12.87
2022-08-17T12:49:36.064Z,13.50
2022-08-17T12:52:28.653Z,13.20
2022-08-17T12:55:12.846Z,16.80
2022-08-17T12:57:42.630Z,14.50
2022-08-17T13:00:16.807Z,14.03
2022-08-17T13:02:48.674Z,13.33
2022-08-17T13:05:31.361Z,13.93
2022-08-17T13:07:59.646Z,12.13
2022-08-17T13:10:34.093Z,11.83
2022-08-17T13:13:16.585Z,12.90
2022-08-17T13:15:52.991Z,12.60
2022-08-17T13:18:49.023Z,13.50
2022-08-17T13:21:18.271Z,13.60
2022-08-17T13:24:04.969Z,13.53
2022-08-17T13:26:38.190Z,13.40
2022-08-17T13:29:08.298Z,12.13
2022-08-17T13:31:52.464Z,13.33
2022-08-17T13:34:26.723Z,12.90
2022-08-17T13:37:21.919Z,12.67
2022-08-17T13:39:49.719Z,11.03
2022-08-17T13:42:34.969Z,11.90
2022-08-17T13:45:35.651Z,11.77
2022-08-17T13:48:15.587Z,12.50
2022-08-17T13:50:48.238Z,12.33
2022-08-17T13:53:24.021Z,23.30
2022-08-17T13:55:52.603Z,13.60
2022-08-17T13:58:25.860Z,11.00
2022-08-17T14:00:53.608Z,11.07
2022-08-17T14:03:20.580Z,11.77
2022-08-17T14:05:49.519Z,10.97
2022-08-17T14:08:18.179Z,11.87
2022-08-17T14:10:49.317Z,16.03
2022-08-17T14:13:15.739Z,11.27
2022-08-17T14:15:55.486Z,11.70
2022-08-17T14:18:56.310Z,11.10
2022-08-17T14:21:10.292Z,13.23
2022-08-17T14:23:37.081Z,12.20
2022-08-17T14:26:04.788Z,10.63
2022-08-17T14:28:31.941Z,13.60
2022-08-17T14:31:00.194Z,12.63
2022-08-17T14:33:28.627Z,12.67
2022-08-17T14:35:55.104Z,12.83
2022-08-17T14:38:21.516Z,14.00
2022-08-17T14:40:48.683Z,13.70
2022-08-17T14:43:15.331Z,14.47
2022-08-17T14:45:43.081Z,15.83
2022-08-17T14:48:09.654Z,15.33
2022-08-17T14:50:39.610Z,17.43
2022-08-17T14:53:07.795Z,19.00
2022-08-17T14:55:34.718Z,18.60
2022-08-17T14:58:01.701Z,18.13
2022-08-17T15:00:28.191Z,19.87
2022-08-17T15:02:58.189Z,19.27
2022-08-17T15:05:31.818Z,21.87
2022-08-17T15:07:59.550Z,20.60
2022-08-17T15:10:26.131Z,19.27
2022-08-17T15:12:52.608Z,18.77
2022-08-17T15:15:19.364Z,18.30
2022-08-17T15:17:46.272Z,19.00
2022-08-17T15:20:16.033Z,16.70
2022-08-17T15:22:43.768Z,15.53
2022-08-17T15:25:11.623Z,15.63
2022-08-17T15:27:38.104Z,16.63
2022-08-17T15:30:07.269Z,16.70
2022-08-17T15:32:36.285Z,16.87
2022-08-17T15:35:04.469Z,16.50
2022-08-17T15:37:31.103Z,15.20
2022-08-17T15:39:58.366Z,18.10
2022-08-17T15:42:24.839Z,14.73
2022-08-17T15:44:51.233Z,19.20
2022-08-17T15:47:17.638Z,15.43
2022-08-17T15:49:45.985Z,18.13
2022-08-17T15:52:18.372Z,15.87
2022-08-17T15:54:58.250Z,15.53
2022-08-17T15:57:25.081Z,17.00
2022-08-17T15:59:58.467Z,15.70
2022-08-17T16:03:13.486Z,15.80
2022-08-17T16:05:21.699Z,16.77
2022-08-17T16:07:51.093Z,15.13
2022-08-17T16:10:19.281Z,14.97
2022-08-17T16:12:47.572Z,17.50
2022-08-17T16:15:14.762Z,15.13
2022-08-17T16:17:41.515Z,16.23
2022-08-17T16:20:19.960Z,17.23
2022-08-17T16:22:48.376Z,15.70
2022-08-17T16:25:51.913Z,16.43
2022-08-17T16:28:11.525Z,15.63
2022-08-17T16:30:37.973Z,18.63
2022-08-17T16:33:04.945Z,18.07
2022-08-17T16:35:31.384Z,18.80
2022-08-17T16:37:58.711Z,17.37
2022-08-17T16:40:28.553Z,15.80
2022-08-17T16:42:56.034Z,16.50
2022-08-17T16:45:29.758Z,15.60
2022-08-17T16:47:56.245Z,18.57
2022-08-17T16:50:23.833Z,16.17
2022-08-17T16:52:50.952Z,14.80
2022-08-17T16:55:21.983Z,14.57
2022-08-17T16:57:50.382Z,14.37
2022-08-17T17:00:18.516Z,13.83
2022-08-17T17:02:48.086Z,14.50
2022-08-17T17:05:33.239Z,18.53
2022-08-17T17:08:13.482Z,13.90
2022-08-17T17:10:47.752Z,16.63
2022-08-17T17:13:25.062Z,16.03
2022-08-17T17:16:14.825Z,15.23
2022-08-17T17:18:53.674Z,14.63
2022-08-17T17:21:30.360Z,14.83
2022-08-17T17:24:02.891Z,14.77
2022-08-17T17:26:55.543Z,17.20
2022-08-17T17:29:29.692Z,14.63
2022-08-17T17:32:21.673Z,15.87
2022-08-17T17:34:53.919Z,16.80
2022-08-17T17:37:27.212Z,13.77
2022-08-17T17:39:59.992Z,17.17
2022-08-17T17:42:30.758Z,15.30
2022-08-17T17:45:09.204Z,14.73
2022-08-17T17:47:36.546Z,16.80
2022-08-17T17:50:05.962Z,18.90
2022-08-17T17:52:45.299Z,16.17
2022-08-17T17:55:38.168Z,16.30
2022-08-17T17:58:10.682Z,16.77
2022-08-17T18:00:40.141Z,18.17
2022-08-17T18:03:52.617Z,15.13
2022-08-17T18:06:45.252Z,14.03
2022-08-17T18:09:39.448Z,16.00
2022-08-17T18:12:19.939Z,13.67
2022-08-17T18:15:08.786Z,17.23
2022-08-17T18:17:36.376Z,12.87
2022-08-17T18:20:05.284Z,15.90
2022-08-17T18:22:31.697Z,19.23
2022-08-17T18:24:58.131Z,17.67
2022-08-17T18:27:24.497Z,14.93
2022-08-17T18:29:56.147Z,19.43
2022-08-17T18:32:27.878Z,17.93
2022-08-17T18:34:59.177Z,20.03
2022-08-17T18:37:39.380Z,18.93
2022-08-17T18:40:18.033Z,15.80
2022-08-17T18:43:00.395Z,13.90
2022-08-17T18:45:39.023Z,14.17
2022-08-17T18:48:17.943Z,14.00
2022-08-17T18:50:44.919Z,13.80
2022-08-17T18:53:33.214Z,13.77
2022-08-17T18:56:25.340Z,16.57
2022-08-17T18:59:05.922Z,19.53
2022-08-17T19:01:53.288Z,15.17
2022-08-17T19:04:49.224Z,21.50
2022-08-17T19:07:21.833Z,12.40
2022-08-17T19:10:21.241Z,19.53
2022-08-17T19:12:51.626Z,13.23
2022-08-17T19:15:26.535Z,12.13
2022-08-17T19:18:00.428Z,15.87
2022-08-17T19:20:36.282Z,15.00
2022-08-17T19:23:13.552Z,12.10
2022-08-17T19:25:47.461Z,17.07
2022-08-17T19:28:32.675Z,13.43
2022-08-17T19:31:08.043Z,15.43
2022-08-17T19:33:34.928Z,11.40
2022-08-17T19:36:21.266Z,11.80
2022-08-17T19:39:15.918Z,15.13
2022-08-17T19:41:52.980Z,19.25
2022-08-17T19:44:40.076Z,12.27
2022-08-17T19:47:53.725Z,11.23
2022-08-17T19:50:31.729Z,14.77
2022-08-17T19:53:03.822Z,18.37
2022-08-17T19:55:39.672Z,15.90
2022-08-17T19:58:23.373Z,17.17
2022-08-17T20:00:51.964Z,14.40
2022-08-17T20:03:31.577Z,17.53
2022-08-17T20:06:15.526Z,15.40
2022-08-17T20:08:53.890Z,20.97
2022-08-17T20:11:36.004Z,18.57
2022-08-17T20:14:21.785Z,20.33
2022-08-17T20:16:48.230Z,17.40
2022-08-17T20:19:31.410Z,20.90
2022-08-17T20:22:10.644Z,16.57
2022-08-17T20:24:43.757Z,12.23
2022-08-17T20:27:18.444Z,18.43
2022-08-17T20:30:29.631Z,19.53
2022-08-17T20:32:58.041Z,20.60
2022-08-17T20:35:28.163Z,13.53
2022-08-17T20:38:13.213Z,12.07
2022-08-17T20:41:02.377Z,21.17
2022-08-17T20:43:34.824Z,13.37
2022-08-17T20:46:20.150Z,13.97
2022-08-17T20:48:51.633Z,15.67
2022-08-17T20:51:17.980Z,15.37
2022-08-17T20:53:47.364Z,13.57
2022-08-17T20:56:44.826Z,14.33
2022-08-17T20:59:20.381Z,20.53
2022-08-17T21:02:02.635Z,17.13
2022-08-17T21:04:47.172Z,18.23
2022-08-17T21:07:33.133Z,17.27
2022-08-17T21:10:15.861Z,16.27
2022-08-17T21:12:43.769Z,16.93
2022-08-17T21:15:47.920Z,18.23
2022-08-17T21:18:40.491Z,12.73
2022-08-17T21:21:22.441Z,18.60
2022-08-17T21:24:13.477Z,18.00
2022-08-17T21:27:21.989Z,15.70
2022-08-17T21:30:12.973Z,21.07
2022-08-17T21:32:41.996Z,17.37
2022-08-17T21:35:11.402Z,14.00
2022-08-17T21:37:41.713Z,21.43
2022-08-17T21:40:11.271Z,20.33
2022-08-17T21:42:58.944Z,19.93
2022-08-17T21:45:30.580Z,22.00
2022-08-17T21:48:18.690Z,14.20
2022-08-17T21:51:07.969Z,16.40
2022-08-17T21:53:44.580Z,16.40
2022-08-17T21:56:13.449Z,20.33
2022-08-17T21:58:47.917Z,19.93
2022-08-17T22:01:26.480Z,17.63
2022-08-17T22:04:01.838Z,20.17
2022-08-17T22:06:34.748Z,14.53
2022-08-17T22:09:10.142Z,17.40
2022-08-17T22:12:01.442Z,17.53
2022-08-17T22:14:51.437Z,16.87
2022-08-17T22:17:25.806Z,19.80
2022-08-17T22:19:59.721Z,16.37
2022-08-17T22:22:38.326Z,14.63
2022-08-17T22:25:07.476Z,16.63
2022-08-17T22:28:10.441Z,16.30
2022-08-17T22:31:04.385Z,15.93
2022-08-17T22:33:39.934Z,11.47
2022-08-17T22:36:12.542Z,13.03
2022-08-17T22:38:41.046Z,18.10
2022-08-17T22:41:36.308Z,14.77
2022-08-17T22:44:36.736Z,15.80
2022-08-17T22:47:15.346Z,17.63
2022-08-17T22:49:54.705Z,19.53
2022-08-17T22:52:33.931Z,12.40
2022-08-17T22:55:14.347Z,18.47
2022-08-17T22:57:46.361Z,16.27
2022-08-17T23:00:34.680Z,19.57
2022-08-17T23:03:13.365Z,18.03
2022-08-17T23:05:42.198Z,17.77
2022-08-17T23:08:08.771Z,19.10
2022-08-17T23:10:35.294Z,19.10
2022-08-17T23:13:01.804Z,17.37
2022-08-17T23:15:28.445Z,14.63
2022-08-17T23:17:54.902Z,20.37
2022-08-17T23:20:21.393Z,14.70
2022-08-17T23:22:52.145Z,11.83
2022-08-17T23:25:26.670Z,14.20
2022-08-17T23:27:53.317Z,18.40
2022-08-17T23:30:20.498Z,15.47
2022-08-17T23:32:53.354Z,17.97
2022-08-17T23:35:20.465Z,16.73
2022-08-17T23:38:06.896Z,13.23
2022-08-17T23:40:33.418Z,15.63
2022-08-17T23:42:59.877Z,16.10
2022-08-17T23:45:31.015Z,16.27
2022-08-17T23:47:57.547Z,21.37
2022-08-17T23:50:24.696Z,14.67
2022-08-17T23:52:56.378Z,18.60
2022-08-17T23:55:22.822Z,12.87
2022-08-17T23:57:49.449Z,17.60
